Time;durP1;ratioP1;P1;durP2;ratioP2;P2;SDS_P1;SDS_P2;PMS_P1;PMS_P2;Temp;Humidity;BMP_temperature;BMP_pressure;BME280_temperature;BME280_humidity;BME280_pressure;Samples;Min_cycle;Max_cycle;Signal;HPM_P1;HPM_P2
2022/03/12 00:01:06;;;;;;;12.03;10.80;;;12.70;30.10;;;-142.21;32.99;112049.66;6038289;23;20416;-77
2022/03/12 00:03:34;;;;;;;12.43;9.97;;;12.70;30.00;;;-142.21;33.18;112049.66;6038508;23;20490;-78
2022/03/12 00:06:02;;;;;;;17.23;10.73;;;12.70;30.10;;;-142.21;33.61;112049.66;6040612;23;20546;-77
2022/03/12 00:08:41;;;;;;;12.97;10.67;;;12.70;30.40;;;-142.21;33.33;112049.66;6042455;23;20892;-79
2022/03/12 00:11:11;;;;;;;12.90;10.73;;;12.70;31.00;;;-142.21;33.79;112049.66;6042717;23;20423;-79
2022/03/12 00:13:38;;;;;;;14.30;11.70;;;12.70;31.10;;;-142.21;34.16;112049.66;6039699;23;20395;-78
2022/03/12 00:16:11;;;;;;;15.67;11.67;;;12.70;31.00;;;-142.21;34.15;112049.66;6039678;23;20414;-79
2022/03/12 00:18:38;;;;;;;13.47;11.07;;;12.60;31.30;;;-142.21;35.43;112049.66;6039632;23;20485;-77
2022/03/12 00:21:07;;;;;;;12.50;11.13;;;12.60;32.00;;;-142.21;34.55;112049.66;6040310;23;20494;-79
2022/03/12 00:23:35;;;;;;;12.83;10.40;;;12.60;31.40;;;-142.21;34.90;112049.66;6039892;23;20415;-77
2022/03/12 00:26:03;;;;;;;12.20;10.73;;;12.60;32.10;;;-142.21;35.04;112049.66;6039491;23;20454;-79
2022/03/12 00:28:33;;;;;;;14.60;10.93;;;12.60;32.20;;;-142.21;35.23;112049.66;6040174;23;20410;-78
2022/03/12 00:31:00;;;;;;;11.50;10.30;;;12.60;32.20;;;-142.21;35.41;112049.66;6038649;23;20438;-78
2022/03/12 00:33:27;;;;;;;12.63;10.97;;;12.60;32.20;;;-142.21;35.64;112049.66;6040084;23;20410;-79
2022/03/12 00:35:55;;;;;;;13.37;10.67;;;12.60;32.20;;;-142.21;35.26;112049.66;6039496;23;20442;-77
2022/03/12 00:38:22;;;;;;;12.90;10.70;;;12.60;32.10;;;-142.21;34.72;112049.66;6040191;23;20802;-78
2022/03/12 00:40:51;;;;;;;16.23;10.57;;;12.60;32.10;;;-142.21;35.09;112049.66;6039750;23;20485;-79
2022/03/12 00:43:19;;;;;;;13.80;10.70;;;12.60;32.20;;;-142.21;34.89;112049.66;6039550;23;20442;-78
2022/03/12 00:45:49;;;;;;;20.10;11.33;;;12.50;31.80;;;-142.21;35.65;112049.66;6039987;23;20545;-77
2022/03/12 00:48:17;;;;;;;13.40;10.23;;;12.60;32.50;;;-142.21;35.36;112049.66;6038961;23;20399;-79
2022/03/12 00:50:44;;;;;;;11.80;10.07;;;12.50;32.80;;;-142.21;35.41;112049.66;6039542;23;20518;-79
2022/03/12 00:53:11;;;;;;;13.73;11.57;;;12.50;32.20;;;-142.21;35.07;112049.66;6039407;23;20761;-76
2022/03/12 00:55:39;;;;;;;13.53;10.63;;;12.60;32.40;;;-142.21;35.24;112049.66;6040063;23;20407;-79
2022/03/12 00:58:06;;;;;;;12.67;10.10;;;12.60;32.20;;;-142.21;35.02;112049.66;6039232;23;20497;-77
2022/03/12 01:00:34;;;;;;;12.03;10.83;;;12.60;31.90;;;-142.21;35.63;112049.66;6039748;23;20749;-78
2022/03/12 01:03:03;;;;;;;14.93;11.47;;;12.60;32.30;;;-142.21;35.20;112049.66;6039901;23;20422;-78
2022/03/12 01:05:54;;;;;;;12.13;10.93;;;12.50;32.20;;;-142.21;35.45;112049.66;6039237;23;20485;-78
2022/03/12 01:08:25;;;;;;;17.10;11.03;;;12.60;32.70;;;-142.21;35.16;112049.66;6039326;23;20878;-80
2022/03/12 01:10:53;;;;;;;12.67;10.73;;;12.50;32.40;;;-142.21;34.46;112049.66;6039982;23;20712;-76
2022/03/12 01:13:21;;;;;;;12.37;10.90;;;12.50;32.10;;;-142.21;34.90;112049.66;6038141;23;20502;-79
2022/03/12 01:15:50;;;;;;;12.33;10.80;;;12.40;32.10;;;-142.21;34.33;112049.66;6039405;23;20418;-78
2022/03/12 01:18:21;;;;;;;12.57;10.50;;;12.30;32.00;;;-142.21;34.44;112049.66;6039164;23;20785;-79
2022/03/12 01:20:50;;;;;;;14.70;11.30;;;12.30;32.10;;;-142.21;34.94;112049.66;6039531;23;20430;-78
2022/03/12 01:23:23;;;;;;;12.43;10.93;;;12.30;32.10;;;-142.21;34.60;112049.66;6039500;23;20418;-78
2022/03/12 01:25:52;;;;;;;13.50;10.60;;;12.30;32.30;;;-142.21;34.14;112049.66;6039305;23;20978;-78
2022/03/12 01:28:20;;;;;;;12.37;10.87;;;12.30;32.00;;;-142.21;34.70;112049.66;6039610;23;20406;-77
2022/03/12 01:30:47;;;;;;;14.97;10.80;;;12.30;32.20;;;-142.21;35.15;112049.66;6038360;23;20432;-78
2022/03/12 01:33:15;;;;;;;16.17;11.03;;;12.30;32.10;;;-142.21;34.66;112049.66;6038191;23;20411;-79
2022/03/12 01:35:43;;;;;;;12.77;11.33;;;12.30;31.90;;;-142.21;35.28;112049.66;6037919;23;20441;-78
2022/03/12 01:38:10;;;;;;;12.17;10.97;;;12.30;32.60;;;-142.21;35.91;112049.66;6038758;23;20415;-78
2022/03/12 01:40:37;;;;;;;11.47;10.27;;;12.30;32.60;;;-142.21;35.59;112049.66;6037748;23;20994;-78
2022/03/12 01:43:07;;;;;;;12.67;10.83;;;12.30;32.70;;;-142.21;35.45;112049.66;6037841;23;20462;-78
2022/03/12 01:45:36;;;;;;;14.93;11.80;;;12.30;32.70;;;-142.21;35.17;112049.66;6039128;23;20911;-79
2022/03/12 01:48:08;;;;;;;13.00;10.80;;;12.30;32.60;;;-142.21;36.00;112049.66;6038338;23;20908;-78
2022/03/12 01:50:38;;;;;;;13.23;11.57;;;12.20;32.90;;;-142.21;36.93;112049.66;6039018;23;20529;-79
2022/03/12 01:53:10;;;;;;;14.10;10.90;;;12.20;33.60;;;-142.21;36.65;112049.66;6038645;23;20410;-78
2022/03/12 01:55:39;;;;;;;12.33;10.37;;;12.10;34.00;;;-142.21;36.70;112049.66;6038945;23;20396;-78
2022/03/12 01:58:09;;;;;;;13.70;11.27;;;12.00;34.00;;;-142.21;37.19;112049.66;6038110;23;20501;-80
2022/03/12 02:00:47;;;;;;;12.90;11.47;;;12.00;34.10;;;-142.21;37.15;112049.66;6038457;23;20418;-78
2022/03/12 02:03:20;;;;;;;11.60;10.40;;;11.90;34.40;;;-142.21;37.12;112049.66;6037775;23;20432;-78
2022/03/12 02:05:47;;;;;;;14.03;10.40;;;11.80;34.10;;;-142.21;37.21;112049.66;6039276;23;20731;-79
2022/03/12 02:08:16;;;;;;;15.10;10.63;;;11.70;34.60;;;-142.21;37.69;112049.66;6038665;23;20529;-79
2022/03/12 02:10:45;;;;;;;13.10;11.27;;;11.80;35.00;;;-142.21;37.57;112049.66;6038690;23;20411;-78
2022/03/12 02:13:14;;;;;;;13.37;11.57;;;11.70;34.90;;;-142.21;36.91;112049.66;6038328;23;20414;-79
2022/03/12 02:15:42;;;;;;;12.63;11.00;;;11.70;34.30;;;-142.21;37.78;112049.66;6039160;23;20446;-77
2022/03/12 02:18:10;;;;;;;11.73;10.50;;;11.70;34.50;;;-142.21;37.27;112049.66;6038507;23;20415;-79
2022/03/12 02:20:38;;;;;;;14.50;11.60;;;11.80;35.20;;;-142.21;36.79;112049.66;6039362;23;20427;-79
2022/03/12 02:23:08;;;;;;;11.97;10.77;;;11.70;34.60;;;-142.21;37.94;112049.66;6038118;23;20453;-79
2022/03/12 02:25:43;;;;;;;11.60;10.40;;;11.70;34.70;;;-142.21;38.58;112049.66;6036551;23;20868;-80
2022/03/12 02:28:17;;;;;;;16.43;11.60;;;11.70;35.30;;;-142.21;37.72;112049.66;6038403;23;20401;-79
2022/03/12 02:30:48;;;;;;;14.60;11.43;;;11.60;35.20;;;-142.21;38.10;112049.66;6038577;23;20419;-79
2022/03/12 02:33:20;;;;;;;14.20;11.70;;;11.60;35.20;;;-142.21;38.58;112049.66;6038448;23;20402;-80
2022/03/12 02:35:47;;;;;;;12.77;11.43;;;11.70;36.50;;;-142.21;38.88;112049.66;6038379;23;20424;-79
2022/03/12 02:38:15;;;;;;;12.83;11.37;;;11.50;35.90;;;-142.21;38.58;112049.66;6038063;23;20437;-78
2022/03/12 02:40:44;;;;;;;13.13;11.00;;;11.50;35.70;;;-142.21;37.98;112049.66;6036664;23;20422;-79
2022/03/12 02:43:13;;;;;;;12.90;11.57;;;11.50;35.60;;;-142.21;38.10;112049.66;6036128;23;20415;-78
2022/03/12 02:45:41;;;;;;;14.30;11.30;;;11.50;35.40;;;-142.21;38.51;112049.66;6038180;23;20742;-79
2022/03/12 02:48:10;;;;;;;15.20;11.20;;;11.40;35.60;;;-142.21;38.98;112049.66;6038712;23;20421;-79
2022/03/12 02:50:38;;;;;;;11.90;10.57;;;11.40;35.70;;;-142.21;38.90;112049.66;6037670;23;20444;-80
2022/03/12 02:53:05;;;;;;;11.50;10.10;;;11.40;35.50;;;-142.21;38.83;112049.66;6038465;23;20502;-79
2022/03/12 02:55:36;;;;;;;15.20;11.17;;;11.40;36.20;;;-142.21;39.21;112049.66;6037768;23;20481;-79
2022/03/12 02:58:10;;;;;;;11.57;10.37;;;11.30;35.80;;;-142.21;38.75;112049.66;6038525;23;20391;-79
2022/03/12 03:00:38;;;;;;;12.83;10.97;;;11.30;35.80;;;-142.21;39.08;112049.66;6037317;23;20868;-79
2022/03/12 03:03:07;;;;;;;12.80;11.07;;;11.20;35.80;;;-142.21;39.21;112049.66;6038457;23;20432;-78
2022/03/12 03:05:45;;;;;;;11.97;10.73;;;11.20;36.10;;;-142.21;39.14;112049.66;6037898;23;20481;-78
2022/03/12 03:08:18;;;;;;;11.97;10.73;;;11.20;36.20;;;-142.21;38.75;112049.66;6038853;23;20434;-79
2022/03/12 03:10:49;;;;;;;11.83;10.60;;;11.10;35.80;;;-142.21;38.60;112049.66;6038180;23;20718;-79
2022/03/12 03:13:42;;;;;;;12.43;11.13;;;11.10;36.20;;;-142.21;39.50;112049.66;6038847;23;20394;-79
2022/03/12 03:16:14;;;;;;;14.70;10.90;;;11.00;37.70;;;-142.21;39.85;112049.66;6039153;23;20463;-80
2022/03/12 03:18:42;;;;;;;13.90;10.33;;;10.80;37.60;;;-142.21;40.13;112049.66;6038950;23;20406;-80
2022/03/12 03:21:13;;;;;;;13.67;10.70;;;10.80;38.60;;;-142.21;41.00;112049.66;6038381;23;20399;-79
2022/03/12 03:23:44;;;;;;;11.63;10.43;;;10.70;37.90;;;-142.21;40.48;112049.66;6038538;23;20395;-78
2022/03/12 03:26:13;;;;;;;13.20;11.27;;;10.70;38.00;;;-142.21;40.57;112049.66;6037787;23;20439;-80
2022/03/12 03:28:42;;;;;;;12.17;10.90;;;10.70;38.10;;;-142.21;40.44;112049.66;6038248;23;20410;-78
2022/03/12 03:31:10;;;;;;;13.10;11.53;;;10.70;38.00;;;-142.21;41.21;112049.66;6038268;23;20442;-78
2022/03/12 03:33:37;;;;;;;14.00;10.33;;;10.60;38.30;;;-142.21;41.75;112049.66;6038819;23;20446;-79
2022/03/12 03:36:05;;;;;;;13.30;11.03;;;10.60;38.40;;;-142.21;42.46;112049.66;6038317;23;20775;-79
2022/03/12 03:38:32;;;;;;;13.50;11.27;;;10.60;38.80;;;-142.21;42.73;112049.66;6040166;23;20489;-79
2022/03/12 03:41:00;;;;;;;13.83;11.17;;;10.60;39.10;;;-142.21;41.11;112049.66;6040753;23;20421;-78
2022/03/12 03:43:27;;;;;;;12.77;11.50;;;10.60;38.60;;;-142.21;42.83;112049.66;6040256;23;20410;-79
2022/03/12 03:45:58;;;;;;;13.00;11.70;;;10.60;38.90;;;-142.21;41.94;112049.66;6040546;23;20421;-79
2022/03/12 03:48:25;;;;;;;12.40;10.63;;;10.60;38.80;;;-142.21;42.28;112049.66;5990426;23;20429;-80
2022/03/12 03:50:55;;;;;;;13.63;10.00;;;10.70;38.60;;;-142.21;42.65;112049.66;6039791;23;20978;-78
2022/03/12 03:53:25;;;;;;;14.00;11.47;;;10.70;39.10;;;-142.21;43.24;112049.66;6039419;23;20414;-77
2022/03/12 03:55:59;;;;;;;12.63;10.57;;;10.70;38.90;;;-142.21;42.40;112049.66;6040222;23;20437;-78
2022/03/12 03:58:30;;;;;;;11.50;10.30;;;10.70;38.70;;;-142.21;41.33;112049.66;6039581;23;20399;-79
2022/03/12 04:01:01;;;;;;;12.20;10.90;;;10.70;38.40;;;-142.21;41.92;112049.66;6040176;23;20442;-78
2022/03/12 04:03:32;;;;;;;12.33;11.13;;;10.70;38.60;;;-142.21;41.82;112049.66;6039913;23;20516;-78
2022/03/12 04:06:00;;;;;;;11.77;10.43;;;10.70;38.40;;;-142.21;41.99;112049.66;6040272;23;20476;-79
2022/03/12 04:08:27;;;;;;;11.67;10.13;;;10.80;38.10;;;-142.21;40.99;112049.66;5989991;23;20456;-78
2022/03/12 04:10:54;;;;;;;12.93;10.50;;;10.80;37.60;;;-142.21;40.59;112049.66;6040227;23;20459;-78
2022/03/12 04:13:23;;;;;;;12.17;10.97;;;10.80;37.40;;;-142.21;40.37;112049.66;6039954;23;20453;-79
2022/03/12 04:15:53;;;;;;;13.20;10.53;;;10.80;37.90;;;-142.21;39.80;112049.66;6040294;23;20421;-80
2022/03/12 04:18:22;;;;;;;12.37;9.57;;;10.90;37.50;;;-142.21;40.21;112049.66;6040245;23;20734;-79
2022/03/12 04:20:51;;;;;;;11.27;10.13;;;10.80;37.70;;;-142.21;39.83;112049.66;6038135;23;20425;-79
2022/03/12 04:23:21;;;;;;;11.37;9.93;;;10.80;37.60;;;-142.21;39.25;112049.66;6015920;23;20744;-79
2022/03/12 04:25:48;;;;;;;11.77;9.90;;;10.80;36.90;;;-142.21;38.38;112049.66;5966833;23;20406;-78
2022/03/12 04:28:15;;;;;;;10.57;9.23;;;10.60;36.30;;;-142.21;37.76;112049.66;6039653;23;20454;-79
2022/03/12 04:30:43;;;;;;;13.93;9.97;;;10.60;36.00;;;-142.21;38.09;112049.66;6039218;23;20456;-79
2022/03/12 04:33:14;;;;;;;10.17;9.17;;;10.60;35.80;;;-142.21;38.04;112049.66;6040065;23;20470;-79
2022/03/12 04:35:43;;;;;;;11.43;9.60;;;10.60;36.40;;;-142.21;38.17;112049.66;6039411;23;20383;-79
2022/03/12 04:38:12;;;;;;;11.53;10.00;;;10.70;35.90;;;-142.21;37.83;112049.66;6040038;23;20757;-79
2022/03/12 04:40:41;;;;;;;12.77;9.57;;;10.60;35.40;;;-142.21;37.71;112049.66;6039497;23;20499;-78
2022/03/12 04:43:11;;;;;;;11.73;9.20;;;10.50;35.40;;;-142.21;36.93;112049.66;6039079;23;20423;-78
2022/03/12 04:45:40;;;;;;;12.97;9.60;;;10.40;36.10;;;-142.21;36.90;112049.66;5990375;23;20454;-78
2022/03/12 04:48:10;;;;;;;11.97;9.23;;;10.40;35.50;;;-142.21;37.24;112049.66;6038785;23;20485;-80
2022/03/12 04:50:37;;;;;;;10.13;8.63;;;10.50;35.90;;;-142.21;36.97;112049.66;6038761;23;20817;-79
2022/03/12 04:53:08;;;;;;;13.00;9.90;;;10.50;35.10;;;-142.21;36.69;112049.66;6038686;23;20422;-79
2022/03/12 04:55:37;;;;;;;10.07;9.07;;;10.60;35.40;;;-142.21;36.56;112049.66;6039444;23;20402;-79
2022/03/12 04:58:05;;;;;;;10.07;9.07;;;10.60;35.00;;;-142.21;37.10;112049.66;6039031;23;20781;-79
2022/03/12 05:00:38;;;;;;;13.70;10.17;;;10.60;35.00;;;-142.21;37.08;112049.66;6039394;23;20420;-79
2022/03/12 05:03:09;;;;;;;18.77;10.00;;;10.50;35.40;;;-142.21;36.53;112049.66;6038729;23;20445;-79
2022/03/12 05:05:40;;;;;;;10.20;9.10;;;10.40;35.30;;;-142.21;36.95;112049.66;6038690;23;20438;-80
2022/03/12 05:08:11;;;;;;;10.87;9.43;;;10.40;35.30;;;-142.21;36.58;112049.66;6038163;23;20441;-80
2022/03/12 05:10:38;;;;;;;13.17;9.77;;;10.40;35.30;;;-142.21;36.71;112049.66;6014528;23;20410;-80
2022/03/12 05:13:07;;;;;;;10.83;9.40;;;10.50;35.20;;;-142.21;36.53;112049.66;6038591;23;20450;-80
2022/03/12 05:15:37;;;;;;;10.73;9.03;;;10.60;35.00;;;-142.21;36.54;112049.66;6013976;23;20414;-78
2022/03/12 05:18:07;;;;;;;10.80;9.67;;;10.60;35.00;;;-142.21;36.90;112049.66;6039177;23;20395;-78
2022/03/12 05:20:37;;;;;;;11.13;9.07;;;10.60;35.10;;;-142.21;36.79;112049.66;6039024;23;20426;-79
2022/03/12 05:23:07;;;;;;;12.43;9.40;;;10.50;35.10;;;-142.21;37.28;112049.66;6038660;23;20940;-79
2022/03/12 05:25:40;;;;;;;10.70;9.20;;;10.60;35.40;;;-142.21;37.38;112049.66;6037922;23;20399;-80
2022/03/12 05:28:08;;;;;;;10.67;8.70;;;10.60;36.00;;;-142.21;36.88;112049.66;6038896;23;20525;-79
2022/03/12 05:30:43;;;;;;;12.10;8.67;;;10.60;35.10;;;-142.21;36.92;112049.66;6037932;23;20414;-77
2022/03/12 05:33:11;;;;;;;11.70;9.10;;;10.60;35.40;;;-142.21;37.09;112049.66;6038886;23;20750;-80
2022/03/12 05:35:42;;;;;;;11.63;8.83;;;10.60;35.10;;;-142.21;37.42;112049.66;6038834;23;20418;-79
2022/03/12 05:38:11;;;;;;;11.17;9.47;;;10.60;35.00;;;-142.21;37.25;112049.66;6039053;23;20391;-78
2022/03/12 05:40:40;;;;;;;10.97;8.73;;;10.60;35.40;;;-142.21;37.88;112049.66;6038853;23;20449;-79
2022/03/12 05:43:12;;;;;;;12.30;9.37;;;10.60;35.40;;;-142.21;37.05;112049.66;6039534;23;20501;-79
2022/03/12 05:45:40;;;;;;;9.83;8.47;;;10.30;35.30;;;-142.21;37.35;112049.66;6038517;23;20403;-78
2022/03/12 05:48:09;;;;;;;12.87;9.87;;;10.30;35.50;;;-142.21;37.49;112049.66;6038903;23;20481;-78
2022/03/12 05:50:38;;;;;;;9.80;8.67;;;10.20;35.50;;;-142.21;37.45;112049.66;6038321;23;20446;-79
2022/03/12 05:53:08;;;;;;;11.17;9.03;;;10.20;35.70;;;-142.21;37.35;112049.66;6037549;23;20895;-78
2022/03/12 05:55:39;;;;;;;9.47;8.50;;;10.10;35.90;;;-142.21;36.67;112049.66;6037746;23;20414;-78
2022/03/12 05:58:08;;;;;;;13.70;8.83;;;10.00;35.80;;;-142.21;36.64;112049.66;6038255;23;20395;-80
2022/03/12 06:00:36;;;;;;;10.47;8.73;;;10.00;35.80;;;-142.21;37.48;112049.66;6038820;23;20449;-79
2022/03/12 06:03:04;;;;;;;12.90;8.57;;;10.10;35.90;;;-142.21;37.21;112049.66;6038232;23;20434;-78
2022/03/12 06:05:31;;;;;;;9.53;8.57;;;10.00;35.80;;;-142.21;36.74;112049.66;6039083;23;20425;-78
2022/03/12 06:07:59;;;;;;;10.73;9.20;;;10.00;35.90;;;-142.21;37.80;112049.66;6037894;23;20454;-79
2022/03/12 06:10:30;;;;;;;9.50;8.50;;;10.10;35.90;;;-142.21;36.97;112049.66;6038715;23;20474;-78
2022/03/12 06:12:58;;;;;;;10.63;9.17;;;10.10;36.00;;;-142.21;37.19;112049.66;6038419;23;20778;-79
2022/03/12 06:15:28;;;;;;;9.77;8.40;;;10.10;36.00;;;-142.21;37.38;112049.66;6039068;23;20414;-78
2022/03/12 06:17:55;;;;;;;10.00;8.97;;;10.20;36.00;;;-142.21;37.22;112049.66;6038165;23;20417;-78
2022/03/12 06:20:24;;;;;;;9.13;8.23;;;10.20;35.60;;;-142.21;37.76;112049.66;6038585;23;20454;-78
2022/03/12 06:22:54;;;;;;;9.90;8.90;;;10.20;35.70;;;-142.21;37.15;112049.66;6038016;23;20417;-78
2022/03/12 06:25:24;;;;;;;10.47;8.20;;;10.20;35.90;;;-142.21;37.26;112049.66;6038174;23;20485;-78
2022/03/12 06:27:54;;;;;;;11.77;9.20;;;10.30;35.90;;;-142.21;37.24;112049.66;6038757;23;20458;-80
2022/03/12 06:30:24;;;;;;;11.07;8.97;;;10.20;35.60;;;-142.21;37.78;112049.66;6038076;23;20410;-78
2022/03/12 06:32:53;;;;;;;13.20;9.23;;;10.30;35.90;;;-142.21;37.01;112049.66;6038534;23;20403;-80
2022/03/12 06:35:20;;;;;;;11.57;9.07;;;10.30;35.70;;;-142.21;36.80;112049.66;6038161;23;20445;-79
2022/03/12 06:37:48;;;;;;;10.43;8.97;;;10.40;35.90;;;-142.21;36.77;112049.66;6038433;23;20716;-80
2022/03/12 06:40:18;;;;;;;12.30;9.07;;;10.80;35.50;;;-142.21;37.33;112049.66;6038649;23;20517;-79
2022/03/12 06:42:51;;;;;;;12.50;10.00;;;11.00;35.80;;;-142.21;36.83;112049.66;6039234;23;20387;-79
2022/03/12 06:45:19;;;;;;;11.37;9.10;;;10.90;35.10;;;-142.21;37.14;112049.66;6038942;23;20406;-79
2022/03/12 06:47:49;;;;;;;12.07;9.30;;;11.00;35.30;;;-142.21;37.01;112049.66;6038318;23;20502;-79
2022/03/12 06:50:22;;;;;;;11.43;9.63;;;11.20;34.70;;;-142.21;37.35;112049.66;6038369;23;20474;-79
2022/03/12 06:52:50;;;;;;;9.63;8.63;;;11.20;35.20;;;-142.21;37.31;112049.66;6037509;23;20459;-80
2022/03/12 06:55:21;;;;;;;10.97;9.27;;;11.30;35.10;;;-142.21;36.99;112049.66;6038528;23;20489;-79
2022/03/12 06:57:50;;;;;;;11.80;9.60;;;11.20;34.60;;;-142.21;36.54;112049.66;6038339;23;20402;-78
2022/03/12 07:00:21;;;;;;;10.83;9.33;;;11.20;34.70;;;-142.21;36.93;112049.66;6038867;23;20417;-80
2022/03/12 07:02:49;;;;;;;10.40;9.23;;;11.20;35.00;;;-142.21;36.44;112049.66;6037918;23;20436;-79
2022/03/12 07:05:17;;;;;;;10.77;9.13;;;11.20;34.70;;;-142.21;36.72;112049.66;6038942;23;20442;-79
2022/03/12 07:07:44;;;;;;;10.90;9.13;;;11.20;34.80;;;-142.21;36.76;112049.66;6013453;23;20538;-79
2022/03/12 07:10:11;;;;;;;10.57;9.07;;;11.40;34.70;;;-142.21;36.63;112049.66;6038824;23;20502;-79
2022/03/12 07:12:40;;;;;;;11.57;10.27;;;11.40;34.60;;;-142.21;36.93;112049.66;6039367;23;20406;-79
2022/03/12 07:15:08;;;;;;;11.30;9.90;;;11.60;35.70;;;-142.21;36.51;112049.66;6039710;23;20462;-79
2022/03/12 07:17:35;;;;;;;11.10;9.10;;;11.80;34.20;;;-142.21;36.79;112049.66;6040657;23;20429;-79
2022/03/12 07:20:06;;;;;;;11.17;9.07;;;12.10;34.30;;;-142.21;36.51;112049.66;6039579;23;20456;-79
2022/03/12 07:22:33;;;;;;;10.07;8.90;;;12.60;33.80;;;-142.21;36.55;112049.66;6040240;23;20959;-79
2022/03/12 07:25:03;;;;;;;11.00;9.90;;;12.90;33.30;;;-142.21;36.99;112049.66;6039345;23;20463;-79
2022/03/12 07:27:30;;;;;;;11.77;9.87;;;13.20;33.30;;;-142.21;36.78;112049.66;6040849;23;20821;-77
2022/03/12 07:30:00;;;;;;;11.87;9.93;;;12.80;32.60;;;-142.21;36.88;112049.66;6039337;23;20414;-78
2022/03/12 07:32:28;;;;;;;12.63;9.90;;;12.80;33.10;;;-142.21;36.97;112049.66;6015260;23;20466;-80
2022/03/12 07:34:56;;;;;;;13.40;10.07;;;13.10;32.70;;;-142.21;36.44;112049.66;6040575;23;20414;-79
2022/03/12 07:37:25;;;;;;;12.60;9.87;;;13.50;32.80;;;-142.21;37.15;112049.66;6039872;23;20401;-80
2022/03/12 07:39:52;;;;;;;11.20;10.00;;;13.60;32.30;;;-142.21;36.49;112049.66;6039998;23;20923;-80
2022/03/12 07:42:19;;;;;;;10.97;9.83;;;13.60;32.40;;;-142.21;37.49;112049.66;6039944;23;20414;-79
2022/03/12 07:44:46;;;;;;;11.70;10.50;;;13.50;32.40;;;-142.21;37.68;112049.66;6039663;23;20899;-79
2022/03/12 07:47:13;;;;;;;12.40;9.87;;;13.60;32.50;;;-142.21;37.80;112049.66;6039798;23;20492;-80
2022/03/12 07:49:41;;;;;;;11.57;9.90;;;13.50;32.40;;;-142.21;36.62;112049.66;6039838;23;20494;-80
2022/03/12 07:52:10;;;;;;;11.20;9.40;;;13.50;32.70;;;-142.21;36.79;112049.66;6039713;23;20919;-78
2022/03/12 07:54:39;;;;;;;13.10;9.60;;;13.40;32.50;;;-142.21;36.99;112049.66;6040375;23;20442;-79
2022/03/12 07:57:08;;;;;;;12.27;10.27;;;13.20;33.20;;;-142.21;36.71;112049.66;6039372;23;20449;-79
2022/03/12 07:59:42;;;;;;;12.83;10.07;;;13.00;33.30;;;-142.21;36.86;112049.66;6038237;23;20410;-79
2022/03/12 08:02:10;;;;;;;11.00;9.80;;;13.10;33.40;;;-142.21;36.66;112049.66;6040142;23;20390;-79
2022/03/12 08:04:38;;;;;;;12.20;10.57;;;13.20;33.50;;;-142.21;36.65;112049.66;6039639;23;20460;-78
2022/03/12 08:07:06;;;;;;;11.57;10.00;;;13.40;33.10;;;-142.21;36.59;112049.66;6040104;23;20490;-79
2022/03/12 08:09:34;;;;;;;11.23;9.73;;;13.80;33.30;;;-142.21;37.26;112049.66;6015035;23;20509;-79
2022/03/12 08:12:03;;;;;;;11.07;9.97;;;14.10;32.90;;;-142.21;36.27;112049.66;6040215;23;20402;-79
2022/03/12 08:14:31;;;;;;;11.33;10.23;;;14.20;32.00;;;-142.21;37.53;112049.66;6038815;23;20410;-80
2022/03/12 08:16:59;;;;;;;12.63;10.13;;;14.30;32.70;;;-142.21;35.45;112049.66;6039904;23;20423;-79
2022/03/12 08:19:26;;;;;;;15.10;10.23;;;14.30;31.80;;;-142.21;36.13;112049.66;6014455;23;20442;-80
2022/03/12 08:21:56;;;;;;;12.33;10.90;;;14.30;31.70;;;-142.21;36.35;112049.66;6039280;23;20449;-80
2022/03/12 08:24:23;;;;;;;12.70;11.23;;;14.30;32.00;;;-142.21;35.91;112049.66;6039361;23;20918;-79
2022/03/12 08:26:51;;;;;;;14.57;10.30;;;14.10;31.50;;;-142.21;36.19;112049.66;6039339;23;20420;-79
2022/03/12 08:29:20;;;;;;;11.77;10.53;;;14.00;31.80;;;-142.21;35.79;112049.66;6039697;23;20450;-79
2022/03/12 08:31:48;;;;;;;13.53;10.30;;;13.80;31.90;;;-142.21;34.95;112049.66;6039456;23;20410;-78
2022/03/12 08:34:15;;;;;;;12.17;10.77;;;13.90;32.00;;;-142.21;35.25;112049.66;6040071;23;20414;-80
2022/03/12 08:36:44;;;;;;;13.87;10.33;;;13.80;31.90;;;-142.21;35.63;112049.66;6040180;23;20411;-79
2022/03/12 08:39:14;;;;;;;14.17;11.70;;;13.80;32.00;;;-142.21;35.81;112049.66;6039673;23;20413;-79
2022/03/12 08:41:42;;;;;;;12.97;9.70;;;13.90;32.20;;;-142.21;35.17;112049.66;6039522;23;20414;-79
2022/03/12 08:44:09;;;;;;;13.23;10.60;;;13.80;31.80;;;-142.21;34.70;112049.66;6039191;23;20494;-79
2022/03/12 08:46:42;;;;;;;12.90;10.87;;;14.10;32.10;;;-142.21;34.68;112049.66;6039603;23;20501;-79
2022/03/12 08:49:11;;;;;;;12.13;10.90;;;14.10;31.60;;;-142.21;35.54;112049.66;6011659;23;20450;-80
2022/03/12 08:51:38;;;;;;;15.87;10.93;;;14.00;31.40;;;-142.21;35.05;112049.66;6011491;23;20455;-79
2022/03/12 08:54:07;;;;;;;12.77;10.27;;;13.90;31.70;;;-142.21;35.02;112049.66;6010846;23;20411;-79
2022/03/12 08:56:35;;;;;;;12.57;10.27;;;14.20;32.10;;;-142.21;34.94;112049.66;6010674;23;20415;-80
2022/03/12 08:59:02;;;;;;;14.30;11.00;;;14.40;31.40;;;-142.21;35.06;112049.66;5961686;23;20414;-79
2022/03/12 09:01:30;;;;;;;14.63;10.23;;;14.70;31.40;;;-142.21;35.67;112049.66;6010909;23;20407;-80
2022/03/12 09:03:58;;;;;;;14.13;10.83;;;15.00;31.20;;;-142.21;35.12;112049.66;6011488;23;20792;-80
2022/03/12 09:06:27;;;;;;;12.17;9.97;;;15.20;31.10;;;-142.21;35.80;112049.66;6010656;23;20420;-78
2022/03/12 09:08:55;;;;;;;15.17;10.70;;;15.60;30.80;;;-142.21;34.21;112049.66;6010794;23;20447;-79
2022/03/12 09:11:23;;;;;;;12.30;11.10;;;15.90;30.10;;;-142.21;34.24;112049.66;6010418;23;20411;-79
2022/03/12 09:13:51;;;;;;;12.60;11.30;;;16.60;30.20;;;-142.21;34.68;112049.66;6011148;23;20412;-79
2022/03/12 09:16:19;;;;;;;15.03;11.43;;;17.60;29.50;;;-142.21;34.05;112049.66;6010657;23;20468;-79
2022/03/12 09:18:46;;;;;;;13.27;11.90;;;18.40;28.30;;;-142.21;32.94;112049.66;6010909;23;20214;-79
2022/03/12 09:21:15;;;;;;;15.07;10.60;;;19.00;27.80;;;-142.21;32.76;112049.66;6011127;23;20179;-79
2022/03/12 09:23:42;;;;;;;13.07;11.73;;;20.00;27.80;;;-142.21;32.53;112049.66;6011642;23;20183;-79
2022/03/12 09:26:14;;;;;;;13.37;11.83;;;20.70;26.50;;;-142.21;34.02;112049.66;6010793;23;20537;-78
2022/03/12 09:28:41;;;;;;;13.27;11.73;;;21.40;26.70;;;-142.21;33.51;112049.66;6009968;23;20197;-79
2022/03/12 09:31:09;;;;;;;12.73;11.50;;;22.00;25.80;;;-142.21;32.67;112049.66;6010189;23;20185;-77
2022/03/12 09:33:38;;;;;;;13.37;11.47;;;22.50;25.80;;;-142.21;33.64;112049.66;5961225;23;20187;-78
2022/03/12 09:36:07;;;;;;;13.10;11.97;;;23.10;26.00;;;-142.21;32.38;112049.66;5985152;23;20190;-78
2022/03/12 09:38:37;;;;;;;13.83;11.77;;;23.90;25.10;;;-142.21;32.13;112049.66;6009207;23;20562;-76
2022/03/12 09:41:05;;;;;;;13.60;12.17;;;24.00;24.50;;;-142.21;32.32;112049.66;6009142;23;20241;-74
2022/03/12 09:43:32;;;;;;;13.83;12.00;;;24.30;24.00;;;-142.21;32.18;112049.66;6008877;23;20263;-78
2022/03/12 09:46:00;;;;;;;13.57;12.27;;;24.40;24.20;;;-142.21;32.08;112049.66;6009599;23;20219;-76
2022/03/12 09:48:27;;;;;;;13.13;11.73;;;24.50;24.10;;;-142.21;31.18;112049.66;6012798;23;20207;-75
2022/03/12 09:50:58;;;;;;;14.77;12.07;;;23.90;23.50;;;-142.21;31.91;112049.66;6046684;23;20234;-76
2022/03/12 09:53:26;;;;;;;14.63;12.07;;;23.50;23.70;;;-142.21;32.89;112049.66;6050539;23;20626;-75
2022/03/12 09:55:54;;;;;;;13.00;11.80;;;24.00;24.50;;;-142.21;32.16;112049.66;6048503;23;20190;-76
2022/03/12 09:58:21;;;;;;;14.17;12.67;;;24.90;24.80;;;-142.21;32.43;112049.66;6049143;23;20248;-76